Flight Track Log - Related Links

Times and Time Zones

All times are in EDT time to prevent confusion due to time zone crossing. See the SWA1114 flight status page for this flight to view local times or setup timezone preferences in your user account.

Time Position Orientation Groundspeed Altitude Reporting Facility
EDT Latitude Longitude Course Direction KTS MPH feet Rate Location/Type
Sat 03:31:44 PM 37.7300 -122.2617 202° Southwest 176 203 2,000  Level Oakland Center
Sat 03:32:46 PM 37.7433 -122.3289 284° West 193 222 5,700 3,268 Climbing Oakland Center
Sat 03:33:47 PM 37.7114 -122.3917 237° Southwest 224 258 8,700 3,197 Climbing Oakland Center
Sat 03:34:48 PM 37.6442 -122.4483 214° Southwest 288 331 12,200 3,541 Climbing Oakland Center
Sat 03:35:49 PM 37.5497 -122.4836 196° South 355 409 15,900 3,659 Climbing Oakland Center
Sat 03:36:51 PM 37.4475 -122.4981 186° South 370 426 19,700 3,707 Climbing Oakland Center
Sat 03:37:00 PM 37.1470 -122.4765 202° Southwest  Level FlightAware Approximate
Sat 03:37:52 PM 37.3156 -122.5172 187° South 400 460 23,500  Level Oakland Center
Sat 03:38:53 PM 37.1992 -122.5350 187° South 419 482 26,700 2,927 Climbing Oakland Center
Sat 03:39:55 PM 37.0825 -122.5522 187° South 423 487 29,500 2,488 Climbing Oakland Center
Sat 03:40:56 PM 36.9608 -122.5706 187° South 438 504 31,800 2,410 Climbing Oakland Center
Sat 03:41:57 PM 36.8425 -122.5339 166° South 440 506 34,400 2,341 Climbing Oakland Center
Sat 03:42:59 PM 36.7503 -122.4333 139° Southeast 438 504 36,600 1,902 Climbing Oakland Center
Sat 03:44:00 PM 36.6578 -122.3356 140° Southeast 440 506 38,300 1,672 Climbing Oakland Center
Sat 03:45:01 PM 36.5656 -122.2361 139° Southeast 440 506 40,000 1,317 Climbing Oakland Center
Sat 03:46:03 PM 36.4725 -122.1375 140° Southeast 440 506 41,000 488 Climbing Oakland Center
Sat 03:47:04 PM 36.3611 -122.0186 139° Southeast 441 507 41,000  Level Oakland Center
Sat 03:48:05 PM 36.2681 -121.9197 139° Southeast 443 510 41,000  Level Oakland Center
Sat 03:49:07 PM 36.1758 -121.8206 139° Southeast 441 507 41,000  Level Oakland Center
Sat 03:50:08 PM 36.0781 -121.7153 139° Southeast 444 511 41,000  Level Oakland Center
Sat 03:51:09 PM 35.9831 -121.6147 139° Southeast 448 516 41,000  Level Oakland Center
Sat 03:52:11 PM 35.8878 -121.5161 140° Southeast 450 518 41,000  Level Oakland Center
Sat 03:53:12 PM 35.7928 -121.4144 139° Southeast 452 520 41,000  Level Oakland Center
Sat 03:54:13 PM 35.6972 -121.3133 139° Southeast 455 524 41,000  Level Oakland Center
Sat 03:55:14 PM 35.6008 -121.2119 139° Southeast 456 525 41,000  Level Oakland Center
Sat 03:56:15 PM 35.5053 -121.1122 140° Southeast 455 524 41,000  Level Oakland Center
Sat 03:57:17 PM 35.4011 -121.0278 147° Southeast 453 521 41,000  Level Oakland Center
Sat 03:57:35 PM 35.3708 -121.0022 145° Southeast 450 518 41,000  Level Los Angeles Center
Sat 03:58:37 PM 35.2450 -120.9042 148° Southeast 447 514 41,000  Level Los Angeles Center
Sat 03:59:39 PM 35.1406 -120.8231 148° Southeast 445 512 41,000  Level Los Angeles Center
Sat 04:00:41 PM 35.0364 -120.7428 148° Southeast 443 510 41,000  Level Los Angeles Center
Sat 04:01:43 PM 34.9325 -120.6617 147° Southeast 443 510 41,000  Level Los Angeles Center
Sat 04:02:45 PM 34.8219 -120.5758 147° Southeast 446 513 41,000  Level Los Angeles Center
Sat 04:03:47 PM 34.7169 -120.4939 147° Southeast 449 517 41,000  Level Los Angeles Center
Sat 04:04:49 PM 34.6125 -120.4144 148° Southeast 447 514 41,000  Level Los Angeles Center
Sat 04:05:51 PM 34.4853 -120.3200 149° Southeast 448 516 41,000 -726 Level Los Angeles Center
Sat 04:06:53 PM 34.3808 -120.2389 147° Southeast 447 514 39,500 -2,016 Descending Los Angeles Center
Sat 04:07:56 PM 34.2736 -120.1572 148° Southeast 443 510 36,800 -2,661 Descending Los Angeles Center
Sat 04:08:57 PM 34.2017 -120.0386 126° Southeast 444 511 34,000 -2,488 Descending Los Angeles Center
Sat 04:09:59 PM 34.1400 -119.9147 121° Southeast 433 498 31,700 -2,226 Descending Los Angeles Center
Sat 04:11:01 PM 34.0808 -119.7953 121° Southeast 418 481 29,400 -2,323 Descending Los Angeles Center
Sat 04:12:03 PM 34.0117 -119.6592 121° Southeast 401 461 26,900 -2,226 Descending Los Angeles Center
Sat 04:13:05 PM 33.9567 -119.5506 121° Southeast 384 442 24,800 -1,984 Descending Los Angeles Center
Sat 04:14:07 PM 33.9014 -119.4433 122° Southeast 379 436 22,800 -1,935 Descending Los Angeles Center
Sat 04:15:09 PM 33.8481 -119.3367 121° Southeast 373 429 20,800 -1,887 Descending Los Angeles Center
Sat 04:16:11 PM 33.7975 -119.2347 121° Southeast 355 409 18,900 -1,790 Descending Los Angeles Center
Sat 04:17:13 PM 33.7475 -119.1372 122° Southeast 344 396 17,100 -2,032 Descending Los Angeles Center
Sat 04:18:15 PM 33.6894 -119.0247 122° Southeast 334 384 14,700 -2,081 Descending Los Angeles Center
Sat 04:19:17 PM 33.6422 -118.9344 122° Southeast 324 373 12,800 -1,742 Descending Los Angeles Center
Sat 04:20:19 PM 33.5969 -118.8478 122° Southeast 311 358 11,100 -1,258 Descending Los Angeles Center
Sat 04:21:21 PM 33.5703 -118.7558 109° East 296 341 10,200 -919 Descending Los Angeles Center
Sat 04:22:23 PM 33.5506 -118.6656 105° East 285 328 9,200 -1,065 Descending Los Angeles Center
Sat 04:23:25 PM 33.5561 -118.5564 86° East 278 320 8,000 -1,065 Descending Los Angeles Center
Sat 04:24:27 PM 33.5633 -118.4647 85° East 279 321 7,000 -968 Descending Los Angeles Center
Sat 04:25:29 PM 33.5694 -118.3731 85° East 280 322 6,000 -919 Descending Los Angeles Center
Sat 04:26:31 PM 33.5767 -118.2819 85° East 280 322 5,100 -484 Descending Los Angeles Center
Sat 04:27:33 PM 33.5825 -118.1917 86° East 278 320 5,000 -96 Descending Los Angeles Center
Sat 04:28:36 PM 33.5897 -118.0936 85° East 261 300 4,900 -44 Descending Los Angeles Center
Sat 04:29:50 PM 33.6236 -118.0247 59° Northeast 225 259 4,900 49 Level Los Angeles Center
Sat 04:30:39 PM 33.6667 -117.9833 39° Northeast 216 249 5,000 55 Climbing Southern California TRACON
Sat 04:31:39 PM 33.7167 -117.9500 29° Northeast 216 249 5,000 -250 Level Southern California TRACON
Sat 04:32:39 PM 33.7667 -117.9000 40° Northeast 213 245 4,500 -750 Descending Southern California TRACON
Sat 04:33:39 PM 33.8000 -117.8500 51° Northeast 224 258 3,500 -1,150 Descending Southern California TRACON
Sat 04:34:39 PM 33.7667 -117.8167 140° Southeast 203 234 2,200 -1,300 Descending Southern California TRACON
Sat 04:35:39 PM 33.7167 -117.8333 195° South 148 170 900 -942 Descending Southern California TRACON
Sat 04:36:40 PM 33.7000 -117.8667 239° Southwest 125 144 300 -590 Descending Southern California TRACON

Login

Don't have an account? Register now (free) for customized features, flight alerts, and more!